sensor_id;sensor_type;location;lat;lon;timestamp;temperature;humidity
34877;DHT22;21086;44.780;17.194;2023-04-03T00:00:56;10.60;99.90
34877;DHT22;21086;44.780;17.194;2023-04-03T00:03:23;10.40;99.90
34877;DHT22;21086;44.780;17.194;2023-04-03T00:05:50;10.20;99.90
34877;DHT22;21086;44.780;17.194;2023-04-03T00:08:17;10.10;99.90
34877;DHT22;21086;44.780;17.194;2023-04-03T00:10:44;10.00;99.90
34877;DHT22;21086;44.780;17.194;2023-04-03T00:13:12;10.00;99.90
34877;DHT22;21086;44.780;17.194;2023-04-03T00:15:39;10.00;99.90
34877;DHT22;21086;44.780;17.194;2023-04-03T00:18:07;9.90;99.90
34877;DHT22;21086;44.780;17.194;2023-04-03T00:20:35;9.90;99.90
34877;DHT22;21086;44.780;17.194;2023-04-03T00:23:02;9.90;99.90
34877;DHT22;21086;44.780;17.194;2023-04-03T00:25:29;9.90;99.90
34877;DHT22;21086;44.780;17.194;2023-04-03T00:27:56;10.00;99.90
34877;DHT22;21086;44.780;17.194;2023-04-03T00:30:23;10.00;99.90
34877;DHT22;21086;44.780;17.194;2023-04-03T00:32:51;9.90;99.90
34877;DHT22;21086;44.780;17.194;2023-04-03T00:35:20;9.70;99.90
34877;DHT22;21086;44.780;17.194;2023-04-03T00:37:47;9.80;99.90
34877;DHT22;21086;44.780;17.194;2023-04-03T00:40:15;9.80;99.90
34877;DHT22;21086;44.780;17.194;2023-04-03T00:42:45;9.90;99.90
34877;DHT22;21086;44.780;17.194;2023-04-03T00:47:41;10.00;99.90
34877;DHT22;21086;44.780;17.194;2023-04-03T00:50:08;9.90;99.90
34877;DHT22;21086;44.780;17.194;2023-04-03T00:52:37;9.90;99.90
34877;DHT22;21086;44.780;17.194;2023-04-03T00:55:08;9.70;99.90
34877;DHT22;21086;44.780;17.194;2023-04-03T00:57:35;9.60;99.90
34877;DHT22;21086;44.780;17.194;2023-04-03T01:00:07;9.70;99.90
34877;DHT22;21086;44.780;17.194;2023-04-03T01:02:36;9.70;99.90
34877;DHT22;21086;44.780;17.194;2023-04-03T01:05:04;9.60;99.90
34877;DHT22;21086;44.780;17.194;2023-04-03T01:07:31;9.70;99.90
34877;DHT22;21086;44.780;17.194;2023-04-03T01:10:04;9.60;99.90
34877;DHT22;21086;44.780;17.194;2023-04-03T01:12:37;9.40;99.90
34877;DHT22;21086;44.780;17.194;2023-04-03T01:25:46;9.30;99.90
34877;DHT22;21086;44.780;17.194;2023-04-03T01:28:17;9.40;99.90
34877;DHT22;21086;44.780;17.194;2023-04-03T01:33:35;9.40;99.90
34877;DHT22;21086;44.780;17.194;2023-04-03T01:36:04;9.20;99.90
34877;DHT22;21086;44.780;17.194;2023-04-03T01:38:32;9.20;99.90
34877;DHT22;21086;44.780;17.194;2023-04-03T01:40:59;9.20;99.90
34877;DHT22;21086;44.780;17.194;2023-04-03T01:43:26;9.10;99.90
34877;DHT22;21086;44.780;17.194;2023-04-03T01:45:53;9.00;99.90
34877;DHT22;21086;44.780;17.194;2023-04-03T01:48:21;8.70;99.90
34877;DHT22;21086;44.780;17.194;2023-04-03T01:50:48;8.70;99.90
34877;DHT22;21086;44.780;17.194;2023-04-03T01:53:15;8.70;99.90
34877;DHT22;21086;44.780;17.194;2023-04-03T01:55:42;8.70;99.90
34877;DHT22;21086;44.780;17.194;2023-04-03T01:58:09;8.70;99.90
34877;DHT22;21086;44.780;17.194;2023-04-03T02:00:36;8.60;99.90
34877;DHT22;21086;44.780;17.194;2023-04-03T02:03:04;8.60;99.90
34877;DHT22;21086;44.780;17.194;2023-04-03T02:05:31;8.70;99.90
34877;DHT22;21086;44.780;17.194;2023-04-03T02:07:58;8.70;99.90
34877;DHT22;21086;44.780;17.194;2023-04-03T02:10:25;7.90;99.90
34877;DHT22;21086;44.780;17.194;2023-04-03T02:12:52;8.80;99.90
34877;DHT22;21086;44.780;17.194;2023-04-03T02:15:19;8.70;99.90
34877;DHT22;21086;44.780;17.194;2023-04-03T02:17:46;8.60;99.90
34877;DHT22;21086;44.780;17.194;2023-04-03T02:20:13;8.50;99.90
34877;DHT22;21086;44.780;17.194;2023-04-03T02:22:40;8.30;99.90
34877;DHT22;21086;44.780;17.194;2023-04-03T02:25:07;8.40;99.90
34877;DHT22;21086;44.780;17.194;2023-04-03T02:27:35;8.50;99.90
34877;DHT22;21086;44.780;17.194;2023-04-03T02:30:03;8.40;99.90
34877;DHT22;21086;44.780;17.194;2023-04-03T02:32:30;8.40;99.90
34877;DHT22;21086;44.780;17.194;2023-04-03T02:34:58;8.40;99.90
34877;DHT22;21086;44.780;17.194;2023-04-03T02:37:25;8.10;99.90
34877;DHT22;21086;44.780;17.194;2023-04-03T02:39:52;8.10;99.90
34877;DHT22;21086;44.780;17.194;2023-04-03T02:42:19;8.20;99.90
34877;DHT22;21086;44.780;17.194;2023-04-03T02:44:46;8.40;99.90
34877;DHT22;21086;44.780;17.194;2023-04-03T02:47:13;8.20;99.90
34877;DHT22;21086;44.780;17.194;2023-04-03T02:49:40;8.00;99.90
34877;DHT22;21086;44.780;17.194;2023-04-03T02:52:07;8.00;99.90
34877;DHT22;21086;44.780;17.194;2023-04-03T02:54:34;8.00;99.90
34877;DHT22;21086;44.780;17.194;2023-04-03T02:57:01;7.90;99.90
34877;DHT22;21086;44.780;17.194;2023-04-03T02:59:28;8.00;99.90
34877;DHT22;21086;44.780;17.194;2023-04-03T03:01:55;8.00;99.90
34877;DHT22;21086;44.780;17.194;2023-04-03T03:04:23;8.00;99.90
34877;DHT22;21086;44.780;17.194;2023-04-03T03:06:50;8.00;99.90
34877;DHT22;21086;44.780;17.194;2023-04-03T03:09:17;8.00;99.90
34877;DHT22;21086;44.780;17.194;2023-04-03T03:11:44;7.90;99.90
34877;DHT22;21086;44.780;17.194;2023-04-03T03:14:12;7.90;99.90
34877;DHT22;21086;44.780;17.194;2023-04-03T03:16:39;8.00;99.90
34877;DHT22;21086;44.780;17.194;2023-04-03T03:19:06;8.20;99.90
34877;DHT22;21086;44.780;17.194;2023-04-03T03:21:33;8.30;99.90
34877;DHT22;21086;44.780;17.194;2023-04-03T03:24:01;8.20;99.90
34877;DHT22;21086;44.780;17.194;2023-04-03T03:26:28;7.90;99.90
34877;DHT22;21086;44.780;17.194;2023-04-03T03:28:55;7.90;99.90
34877;DHT22;21086;44.780;17.194;2023-04-03T03:31:22;7.90;99.90
34877;DHT22;21086;44.780;17.194;2023-04-03T03:33:49;7.90;99.90
34877;DHT22;21086;44.780;17.194;2023-04-03T03:36:16;8.00;99.90
34877;DHT22;21086;44.780;17.194;2023-04-03T03:38:43;8.00;99.90
34877;DHT22;21086;44.780;17.194;2023-04-03T03:41:11;8.10;99.90
34877;DHT22;21086;44.780;17.194;2023-04-03T03:43:37;8.10;99.90
34877;DHT22;21086;44.780;17.194;2023-04-03T03:46:04;8.10;99.90
34877;DHT22;21086;44.780;17.194;2023-04-03T03:48:32;8.20;99.90
34877;DHT22;21086;44.780;17.194;2023-04-03T03:50:58;8.30;99.90
34877;DHT22;21086;44.780;17.194;2023-04-03T03:53:26;8.20;99.90
34877;DHT22;21086;44.780;17.194;2023-04-03T03:55:52;8.20;99.90
34877;DHT22;21086;44.780;17.194;2023-04-03T03:58:19;8.40;99.90
34877;DHT22;21086;44.780;17.194;2023-04-03T04:00:47;8.40;99.90
34877;DHT22;21086;44.780;17.194;2023-04-03T04:03:14;8.20;99.90
34877;DHT22;21086;44.780;17.194;2023-04-03T04:05:41;8.40;99.90
34877;DHT22;21086;44.780;17.194;2023-04-03T04:08:08;8.20;99.90
34877;DHT22;21086;44.780;17.194;2023-04-03T04:10:37;7.90;99.90
34877;DHT22;21086;44.780;17.194;2023-04-03T04:13:04;7.90;99.90
34877;DHT22;21086;44.780;17.194;2023-04-03T04:15:31;8.00;99.90
34877;DHT22;21086;44.780;17.194;2023-04-03T04:17:58;8.10;99.90
34877;DHT22;21086;44.780;17.194;2023-04-03T04:20:25;8.10;99.90
34877;DHT22;21086;44.780;17.194;2023-04-03T04:22:52;8.00;99.90
34877;DHT22;21086;44.780;17.194;2023-04-03T04:25:20;8.00;99.90
34877;DHT22;21086;44.780;17.194;2023-04-03T04:27:46;8.00;99.90
34877;DHT22;21086;44.780;17.194;2023-04-03T04:30:13;8.10;99.90
34877;DHT22;21086;44.780;17.194;2023-04-03T04:32:41;8.20;99.90
34877;DHT22;21086;44.780;17.194;2023-04-03T04:35:08;8.20;99.90
34877;DHT22;21086;44.780;17.194;2023-04-03T04:37:35;8.20;99.90
34877;DHT22;21086;44.780;17.194;2023-04-03T04:40:02;8.10;99.90
34877;DHT22;21086;44.780;17.194;2023-04-03T04:42:29;8.10;99.90
34877;DHT22;21086;44.780;17.194;2023-04-03T04:44:56;8.20;99.90
34877;DHT22;21086;44.780;17.194;2023-04-03T04:47:23;8.10;99.90
34877;DHT22;21086;44.780;17.194;2023-04-03T04:49:50;8.30;99.90
34877;DHT22;21086;44.780;17.194;2023-04-03T04:52:17;8.20;99.90
34877;DHT22;21086;44.780;17.194;2023-04-03T04:54:44;8.20;99.90
34877;DHT22;21086;44.780;17.194;2023-04-03T04:57:11;8.20;99.90
34877;DHT22;21086;44.780;17.194;2023-04-03T04:59:38;8.10;99.90
34877;DHT22;21086;44.780;17.194;2023-04-03T05:02:05;8.00;99.90
34877;DHT22;21086;44.780;17.194;2023-04-03T05:04:32;8.00;99.90
34877;DHT22;21086;44.780;17.194;2023-04-03T05:07:00;8.10;99.90
34877;DHT22;21086;44.780;17.194;2023-04-03T05:09:26;8.00;99.90
34877;DHT22;21086;44.780;17.194;2023-04-03T05:11:54;8.10;99.90
34877;DHT22;21086;44.780;17.194;2023-04-03T05:14:22;8.00;99.90
34877;DHT22;21086;44.780;17.194;2023-04-03T05:16:49;8.00;99.90
34877;DHT22;21086;44.780;17.194;2023-04-03T05:19:20;8.10;99.90
34877;DHT22;21086;44.780;17.194;2023-04-03T05:21:47;7.90;99.90
34877;DHT22;21086;44.780;17.194;2023-04-03T05:24:15;8.10;99.90
34877;DHT22;21086;44.780;17.194;2023-04-03T05:26:43;8.10;99.90
34877;DHT22;21086;44.780;17.194;2023-04-03T05:29:10;8.10;99.90
34877;DHT22;21086;44.780;17.194;2023-04-03T05:31:37;8.10;99.90
34877;DHT22;21086;44.780;17.194;2023-04-03T05:34:04;8.20;99.90
34877;DHT22;21086;44.780;17.194;2023-04-03T05:36:32;8.20;99.90
34877;DHT22;21086;44.780;17.194;2023-04-03T05:38:59;8.20;99.90
34877;DHT22;21086;44.780;17.194;2023-04-03T05:41:27;8.30;99.90
34877;DHT22;21086;44.780;17.194;2023-04-03T05:43:54;8.20;99.90
34877;DHT22;21086;44.780;17.194;2023-04-03T05:46:21;8.20;99.90
34877;DHT22;21086;44.780;17.194;2023-04-03T05:48:48;8.20;99.90
34877;DHT22;21086;44.780;17.194;2023-04-03T05:51:28;8.20;99.90
34877;DHT22;21086;44.780;17.194;2023-04-03T05:54:12;8.10;99.90
34877;DHT22;21086;44.780;17.194;2023-04-03T05:56:41;8.10;99.90
34877;DHT22;21086;44.780;17.194;2023-04-03T05:59:08;8.10;99.90
34877;DHT22;21086;44.780;17.194;2023-04-03T06:01:35;8.00;99.90
34877;DHT22;21086;44.780;17.194;2023-04-03T06:04:01;8.20;99.90
34877;DHT22;21086;44.780;17.194;2023-04-03T06:09:16;8.20;99.90
34877;DHT22;21086;44.780;17.194;2023-04-03T06:11:43;8.30;99.90
34877;DHT22;21086;44.780;17.194;2023-04-03T06:14:11;8.30;99.90
34877;DHT22;21086;44.780;17.194;2023-04-03T06:16:38;8.30;99.90
34877;DHT22;21086;44.780;17.194;2023-04-03T06:19:07;8.30;99.90
34877;DHT22;21086;44.780;17.194;2023-04-03T06:21:34;8.30;99.90
34877;DHT22;21086;44.780;17.194;2023-04-03T06:24:06;8.20;99.90
34877;DHT22;21086;44.780;17.194;2023-04-03T06:26:33;8.20;99.90
34877;DHT22;21086;44.780;17.194;2023-04-03T06:29:00;8.30;99.90
34877;DHT22;21086;44.780;17.194;2023-04-03T06:31:29;8.30;99.90
34877;DHT22;21086;44.780;17.194;2023-04-03T06:33:56;8.30;99.90
34877;DHT22;21086;44.780;17.194;2023-04-03T06:36:23;8.50;99.90
34877;DHT22;21086;44.780;17.194;2023-04-03T06:38:50;8.60;99.90
34877;DHT22;21086;44.780;17.194;2023-04-03T06:41:17;8.50;99.90
34877;DHT22;21086;44.780;17.194;2023-04-03T06:43:45;8.40;99.90
34877;DHT22;21086;44.780;17.194;2023-04-03T06:46:20;8.50;99.90
34877;DHT22;21086;44.780;17.194;2023-04-03T06:48:48;8.50;99.90
34877;DHT22;21086;44.780;17.194;2023-04-03T06:51:25;8.50;99.90
34877;DHT22;21086;44.780;17.194;2023-04-03T06:53:54;8.50;99.90
34877;DHT22;21086;44.780;17.194;2023-04-03T06:56:21;8.50;99.90
34877;DHT22;21086;44.780;17.194;2023-04-03T06:58:49;8.60;99.90
34877;DHT22;21086;44.780;17.194;2023-04-03T07:01:18;8.60;99.90
34877;DHT22;21086;44.780;17.194;2023-04-03T07:03:48;8.60;99.90
34877;DHT22;21086;44.780;17.194;2023-04-03T07:06:16;8.80;99.90
34877;DHT22;21086;44.780;17.194;2023-04-03T07:08:44;8.80;99.90
34877;DHT22;21086;44.780;17.194;2023-04-03T07:11:12;8.80;99.90
34877;DHT22;21086;44.780;17.194;2023-04-03T07:13:40;8.90;99.90
34877;DHT22;21086;44.780;17.194;2023-04-03T07:16:07;8.90;99.90
34877;DHT22;21086;44.780;17.194;2023-04-03T07:18:35;9.10;99.90
34877;DHT22;21086;44.780;17.194;2023-04-03T07:21:02;9.10;99.90
34877;DHT22;21086;44.780;17.194;2023-04-03T07:23:29;8.90;99.90
34877;DHT22;21086;44.780;17.194;2023-04-03T07:25:56;8.90;99.90
34877;DHT22;21086;44.780;17.194;2023-04-03T07:28:24;9.00;99.90
34877;DHT22;21086;44.780;17.194;2023-04-03T07:30:54;8.90;99.90
34877;DHT22;21086;44.780;17.194;2023-04-03T07:33:25;8.80;99.90
34877;DHT22;21086;44.780;17.194;2023-04-03T07:35:53;8.80;99.90
34877;DHT22;21086;44.780;17.194;2023-04-03T07:38:20;8.80;99.90
34877;DHT22;21086;44.780;17.194;2023-04-03T07:40:48;8.80;99.90
34877;DHT22;21086;44.780;17.194;2023-04-03T07:43:17;8.90;99.90
34877;DHT22;21086;44.780;17.194;2023-04-03T07:45:45;8.90;99.90
34877;DHT22;21086;44.780;17.194;2023-04-03T07:48:13;9.00;99.90
34877;DHT22;21086;44.780;17.194;2023-04-03T07:50:40;9.00;99.90
34877;DHT22;21086;44.780;17.194;2023-04-03T07:53:08;9.00;99.90
34877;DHT22;21086;44.780;17.194;2023-04-03T07:55:35;9.00;99.90
34877;DHT22;21086;44.780;17.194;2023-04-03T07:58:16;9.00;99.90
34877;DHT22;21086;44.780;17.194;2023-04-03T08:00:43;8.90;99.90
34877;DHT22;21086;44.780;17.194;2023-04-03T08:03:11;8.90;99.90
34877;DHT22;21086;44.780;17.194;2023-04-03T08:05:40;8.90;99.90
34877;DHT22;21086;44.780;17.194;2023-04-03T08:08:09;9.00;99.90
34877;DHT22;21086;44.780;17.194;2023-04-03T08:10:36;8.90;99.90
34877;DHT22;21086;44.780;17.194;2023-04-03T08:13:04;9.00;99.90
34877;DHT22;21086;44.780;17.194;2023-04-03T08:15:31;9.00;99.90
34877;DHT22;21086;44.780;17.194;2023-04-03T08:17:59;8.80;99.90
34877;DHT22;21086;44.780;17.194;2023-04-03T08:20:28;8.90;99.90
34877;DHT22;21086;44.780;17.194;2023-04-03T08:22:55;9.00;99.90
34877;DHT22;21086;44.780;17.194;2023-04-03T08:25:22;9.00;99.90
34877;DHT22;21086;44.780;17.194;2023-04-03T08:27:49;9.10;99.90
34877;DHT22;21086;44.780;17.194;2023-04-03T08:30:16;9.10;99.90
34877;DHT22;21086;44.780;17.194;2023-04-03T08:32:43;9.20;99.90
34877;DHT22;21086;44.780;17.194;2023-04-03T08:35:11;9.10;99.90
34877;DHT22;21086;44.780;17.194;2023-04-03T08:37:39;9.20;99.90
34877;DHT22;21086;44.780;17.194;2023-04-03T08:40:07;9.30;99.90
34877;DHT22;21086;44.780;17.194;2023-04-03T08:45:18;9.30;99.90
34877;DHT22;21086;44.780;17.194;2023-04-03T08:47:58;9.30;99.90
34877;DHT22;21086;44.780;17.194;2023-04-03T08:50:36;9.30;99.90
34877;DHT22;21086;44.780;17.194;2023-04-03T08:53:06;9.40;99.90
34877;DHT22;21086;44.780;17.194;2023-04-03T08:55:47;9.50;99.90
34877;DHT22;21086;44.780;17.194;2023-04-03T09:01:24;9.50;99.90
34877;DHT22;21086;44.780;17.194;2023-04-03T09:03:53;9.50;99.90
34877;DHT22;21086;44.780;17.194;2023-04-03T09:06:23;9.50;99.90
34877;DHT22;21086;44.780;17.194;2023-04-03T09:12:24;9.60;99.90
34877;DHT22;21086;44.780;17.194;2023-04-03T09:17:43;9.90;99.90
34877;DHT22;21086;44.780;17.194;2023-04-03T09:22:58;10.00;99.90
34877;DHT22;21086;44.780;17.194;2023-04-03T09:25:25;10.10;99.90
34877;DHT22;21086;44.780;17.194;2023-04-03T09:27:54;10.30;99.90
34877;DHT22;21086;44.780;17.194;2023-04-03T09:30:24;10.40;99.90
34877;DHT22;21086;44.780;17.194;2023-04-03T09:32:54;10.50;99.90
34877;DHT22;21086;44.780;17.194;2023-04-03T09:35:27;10.50;99.90
34877;DHT22;21086;44.780;17.194;2023-04-03T09:40:45;10.50;99.90
34877;DHT22;21086;44.780;17.194;2023-04-03T09:43:23;10.40;99.90
34877;DHT22;21086;44.780;17.194;2023-04-03T09:45:51;10.30;99.90
34877;DHT22;21086;44.780;17.194;2023-04-03T09:48:25;10.30;99.90
34877;DHT22;21086;44.780;17.194;2023-04-03T09:50:59;10.10;99.90
34877;DHT22;21086;44.780;17.194;2023-04-03T09:53:38;10.10;99.90
34877;DHT22;21086;44.780;17.194;2023-04-03T09:56:29;10.00;99.90
34877;DHT22;21086;44.780;17.194;2023-04-03T10:04:14;9.70;99.90
34877;DHT22;21086;44.780;17.194;2023-04-03T10:06:44;9.60;99.90
34877;DHT22;21086;44.780;17.194;2023-04-03T10:09:24;9.50;99.90
34877;DHT22;21086;44.780;17.194;2023-04-03T10:12:09;9.60;99.90
34877;DHT22;21086;44.780;17.194;2023-04-03T10:14:53;9.90;99.90
34877;DHT22;21086;44.780;17.194;2023-04-03T10:17:48;9.90;99.90
34877;DHT22;21086;44.780;17.194;2023-04-03T10:25:40;10.30;99.90
34877;DHT22;21086;44.780;17.194;2023-04-03T10:28:24;10.40;99.90
34877;DHT22;21086;44.780;17.194;2023-04-03T10:34:06;10.30;99.90
34877;DHT22;21086;44.780;17.194;2023-04-03T10:37:00;10.40;99.90
34877;DHT22;21086;44.780;17.194;2023-04-03T10:39:50;10.50;99.90
34877;DHT22;21086;44.780;17.194;2023-04-03T10:42:56;10.50;99.90
34877;DHT22;21086;44.780;17.194;2023-04-03T10:48:40;10.60;99.90
34877;DHT22;21086;44.780;17.194;2023-04-03T10:51:24;10.60;99.90
34877;DHT22;21086;44.780;17.194;2023-04-03T10:57:08;10.50;99.90
34877;DHT22;21086;44.780;17.194;2023-04-03T10:59:50;10.50;99.90
34877;DHT22;21086;44.780;17.194;2023-04-03T11:02:32;10.60;99.90
34877;DHT22;21086;44.780;17.194;2023-04-03T11:05:07;10.70;99.90
34877;DHT22;21086;44.780;17.194;2023-04-03T11:07:43;10.80;99.90
34877;DHT22;21086;44.780;17.194;2023-04-03T11:10:56;10.90;99.90
34877;DHT22;21086;44.780;17.194;2023-04-03T11:13:11;11.00;99.90
34877;DHT22;21086;44.780;17.194;2023-04-03T11:15:39;11.10;99.90
34877;DHT22;21086;44.780;17.194;2023-04-03T11:18:11;11.00;99.90
34877;DHT22;21086;44.780;17.194;2023-04-03T11:20:46;10.80;99.90
34877;DHT22;21086;44.780;17.194;2023-04-03T11:23:45;10.70;99.90
34877;DHT22;21086;44.780;17.194;2023-04-03T11:26:19;10.80;99.90
34877;DHT22;21086;44.780;17.194;2023-04-03T11:28:53;11.00;99.90
34877;DHT22;21086;44.780;17.194;2023-04-03T11:34:35;10.40;99.90
34877;DHT22;21086;44.780;17.194;2023-04-03T11:40:02;10.20;99.90
34877;DHT22;21086;44.780;17.194;2023-04-03T11:42:42;9.90;99.90
34877;DHT22;21086;44.780;17.194;2023-04-03T11:47:53;9.80;99.90
34877;DHT22;21086;44.780;17.194;2023-04-03T11:55:52;9.90;99.90
34877;DHT22;21086;44.780;17.194;2023-04-03T11:58:24;9.90;99.90
34877;DHT22;21086;44.780;17.194;2023-04-03T12:01:07;9.90;99.90
34877;DHT22;21086;44.780;17.194;2023-04-03T12:08:45;9.90;99.90
34877;DHT22;21086;44.780;17.194;2023-04-03T12:16:20;10.00;99.90
34877;DHT22;21086;44.780;17.194;2023-04-03T12:24:26;10.00;99.90
34877;DHT22;21086;44.780;17.194;2023-04-03T12:41:11;10.10;99.90
34877;DHT22;21086;44.780;17.194;2023-04-03T12:44:01;10.00;99.90
34877;DHT22;21086;44.780;17.194;2023-04-03T12:46:43;10.10;99.90
34877;DHT22;21086;44.780;17.194;2023-04-03T12:51:53;10.20;99.90
34877;DHT22;21086;44.780;17.194;2023-04-03T12:57:18;10.10;99.90
34877;DHT22;21086;44.780;17.194;2023-04-03T12:59:47;10.10;99.90
34877;DHT22;21086;44.780;17.194;2023-04-03T13:02:35;10.10;99.90
34877;DHT22;21086;44.780;17.194;2023-04-03T13:05:16;10.00;99.90
34877;DHT22;21086;44.780;17.194;2023-04-03T13:07:52;10.10;99.90
34877;DHT22;21086;44.780;17.194;2023-04-03T13:10:21;10.10;99.90
34877;DHT22;21086;44.780;17.194;2023-04-03T13:13:06;10.10;99.90
34877;DHT22;21086;44.780;17.194;2023-04-03T13:15:47;10.00;99.90
34877;DHT22;21086;44.780;17.194;2023-04-03T13:18:37;10.00;99.90
34877;DHT22;21086;44.780;17.194;2023-04-03T13:21:14;10.20;99.90
34877;DHT22;21086;44.780;17.194;2023-04-03T13:23:46;10.10;99.90
34877;DHT22;21086;44.780;17.194;2023-04-03T13:26:18;10.30;99.90
34877;DHT22;21086;44.780;17.194;2023-04-03T13:28:47;10.40;99.90
34877;DHT22;21086;44.780;17.194;2023-04-03T13:33:55;10.30;99.90
34877;DHT22;21086;44.780;17.194;2023-04-03T13:36:29;10.40;99.90
34877;DHT22;21086;44.780;17.194;2023-04-03T13:39:06;10.30;99.90
34877;DHT22;21086;44.780;17.194;2023-04-03T13:41:39;10.40;99.90
34877;DHT22;21086;44.780;17.194;2023-04-03T13:46:50;10.60;99.90
34877;DHT22;21086;44.780;17.194;2023-04-03T13:49:36;10.40;99.90
34877;DHT22;21086;44.780;17.194;2023-04-03T13:55:11;10.00;99.90
34877;DHT22;21086;44.780;17.194;2023-04-03T13:58:36;9.90;99.90
34877;DHT22;21086;44.780;17.194;2023-04-03T14:00:53;10.00;99.90
34877;DHT22;21086;44.780;17.194;2023-04-03T14:05:49;9.90;99.90
34877;DHT22;21086;44.780;17.194;2023-04-03T14:08:18;10.00;99.90
34877;DHT22;21086;44.780;17.194;2023-04-03T14:10:52;10.10;99.90
34877;DHT22;21086;44.780;17.194;2023-04-03T14:13:20;10.00;99.90
34877;DHT22;21086;44.780;17.194;2023-04-03T14:15:48;10.00;99.90
34877;DHT22;21086;44.780;17.194;2023-04-03T14:18:19;10.10;99.90
34877;DHT22;21086;44.780;17.194;2023-04-03T14:20:49;10.10;99.90
34877;DHT22;21086;44.780;17.194;2023-04-03T14:23:16;10.00;99.90
34877;DHT22;21086;44.780;17.194;2023-04-03T14:25:43;10.10;99.90
34877;DHT22;21086;44.780;17.194;2023-04-03T14:28:17;10.10;99.90
34877;DHT22;21086;44.780;17.194;2023-04-03T14:30:46;10.20;99.90
34877;DHT22;21086;44.780;17.194;2023-04-03T14:33:15;10.20;99.90
34877;DHT22;21086;44.780;17.194;2023-04-03T14:35:42;10.20;99.90
34877;DHT22;21086;44.780;17.194;2023-04-03T14:38:24;10.10;99.90
34877;DHT22;21086;44.780;17.194;2023-04-03T14:40:53;10.10;99.90
34877;DHT22;21086;44.780;17.194;2023-04-03T14:43:24;10.00;99.90
34877;DHT22;21086;44.780;17.194;2023-04-03T14:45:51;10.10;99.90
34877;DHT22;21086;44.780;17.194;2023-04-03T14:48:22;10.10;99.90
34877;DHT22;21086;44.780;17.194;2023-04-03T14:50:50;9.70;99.90
34877;DHT22;21086;44.780;17.194;2023-04-03T14:53:31;9.50;99.90
34877;DHT22;21086;44.780;17.194;2023-04-03T14:58:39;9.10;99.90
34877;DHT22;21086;44.780;17.194;2023-04-03T15:01:06;8.90;99.90
34877;DHT22;21086;44.780;17.194;2023-04-03T15:03:33;8.70;99.90
34877;DHT22;21086;44.780;17.194;2023-04-03T15:06:00;8.80;99.90
34877;DHT22;21086;44.780;17.194;2023-04-03T15:08:27;8.70;99.90
34877;DHT22;21086;44.780;17.194;2023-04-03T15:10:58;8.70;99.90
34877;DHT22;21086;44.780;17.194;2023-04-03T15:13:25;8.80;99.90
34877;DHT22;21086;44.780;17.194;2023-04-03T15:15:52;8.90;99.90
34877;DHT22;21086;44.780;17.194;2023-04-03T15:18:25;8.90;99.90
34877;DHT22;21086;44.780;17.194;2023-04-03T15:20:55;9.20;99.90
34877;DHT22;21086;44.780;17.194;2023-04-03T15:23:23;9.40;99.90
34877;DHT22;21086;44.780;17.194;2023-04-03T15:25:53;9.40;99.90
34877;DHT22;21086;44.780;17.194;2023-04-03T15:28:35;9.60;99.90
34877;DHT22;21086;44.780;17.194;2023-04-03T15:31:03;9.50;99.90
34877;DHT22;21086;44.780;17.194;2023-04-03T15:33:32;9.40;99.90
34877;DHT22;21086;44.780;17.194;2023-04-03T15:35:59;9.20;99.90
34877;DHT22;21086;44.780;17.194;2023-04-03T15:38:33;9.10;99.90
34877;DHT22;21086;44.780;17.194;2023-04-03T15:41:00;9.10;99.90
34877;DHT22;21086;44.780;17.194;2023-04-03T15:43:27;9.20;99.90
34877;DHT22;21086;44.780;17.194;2023-04-03T15:45:56;9.20;99.90
34877;DHT22;21086;44.780;17.194;2023-04-03T15:48:25;9.10;99.90
34877;DHT22;21086;44.780;17.194;2023-04-03T15:50:53;9.00;99.90
34877;DHT22;21086;44.780;17.194;2023-04-03T15:53:21;9.10;99.90
34877;DHT22;21086;44.780;17.194;2023-04-03T15:55:48;9.10;99.90
34877;DHT22;21086;44.780;17.194;2023-04-03T15:58:15;9.20;99.90
34877;DHT22;21086;44.780;17.194;2023-04-03T16:00:42;9.30;99.90
34877;DHT22;21086;44.780;17.194;2023-04-03T16:03:11;9.40;99.90
34877;DHT22;21086;44.780;17.194;2023-04-03T16:05:39;9.40;99.90
34877;DHT22;21086;44.780;17.194;2023-04-03T16:08:07;9.50;99.90
34877;DHT22;21086;44.780;17.194;2023-04-03T16:10:36;9.40;99.90
34877;DHT22;21086;44.780;17.194;2023-04-03T16:13:04;9.40;99.90
34877;DHT22;21086;44.780;17.194;2023-04-03T16:15:32;9.40;99.90
34877;DHT22;21086;44.780;17.194;2023-04-03T16:18:00;9.40;99.90
34877;DHT22;21086;44.780;17.194;2023-04-03T16:20:27;9.50;99.90
34877;DHT22;21086;44.780;17.194;2023-04-03T16:22:56;9.50;99.90
34877;DHT22;21086;44.780;17.194;2023-04-03T16:25:24;9.50;99.90
34877;DHT22;21086;44.780;17.194;2023-04-03T16:27:51;9.50;99.90
34877;DHT22;21086;44.780;17.194;2023-04-03T16:30:18;9.40;99.90
34877;DHT22;21086;44.780;17.194;2023-04-03T16:32:45;9.40;99.90
34877;DHT22;21086;44.780;17.194;2023-04-03T16:35:12;9.40;99.90
34877;DHT22;21086;44.780;17.194;2023-04-03T16:37:39;9.40;99.90
34877;DHT22;21086;44.780;17.194;2023-04-03T16:40:07;9.40;99.90
34877;DHT22;21086;44.780;17.194;2023-04-03T16:42:35;9.40;99.90
34877;DHT22;21086;44.780;17.194;2023-04-03T16:45:05;9.50;99.90
34877;DHT22;21086;44.780;17.194;2023-04-03T16:47:32;9.50;99.90
34877;DHT22;21086;44.780;17.194;2023-04-03T16:49:59;9.50;99.90
34877;DHT22;21086;44.780;17.194;2023-04-03T16:52:27;9.50;99.90
34877;DHT22;21086;44.780;17.194;2023-04-03T16:54:54;9.40;99.90
34877;DHT22;21086;44.780;17.194;2023-04-03T16:57:22;9.40;99.90
34877;DHT22;21086;44.780;17.194;2023-04-03T16:59:51;9.30;99.90
34877;DHT22;21086;44.780;17.194;2023-04-03T17:02:22;9.30;99.90
34877;DHT22;21086;44.780;17.194;2023-04-03T17:04:52;9.40;99.90
34877;DHT22;21086;44.780;17.194;2023-04-03T17:07:21;9.30;99.90
34877;DHT22;21086;44.780;17.194;2023-04-03T17:09:48;9.10;99.90
34877;DHT22;21086;44.780;17.194;2023-04-03T17:12:15;9.10;99.90
34877;DHT22;21086;44.780;17.194;2023-04-03T17:14:43;9.10;99.90
34877;DHT22;21086;44.780;17.194;2023-04-03T17:17:10;9.00;99.90
34877;DHT22;21086;44.780;17.194;2023-04-03T17:19:37;9.00;99.90
34877;DHT22;21086;44.780;17.194;2023-04-03T17:22:05;9.00;99.90
34877;DHT22;21086;44.780;17.194;2023-04-03T17:24:33;8.90;99.90
34877;DHT22;21086;44.780;17.194;2023-04-03T17:27:01;8.90;99.90
34877;DHT22;21086;44.780;17.194;2023-04-03T17:29:28;9.00;99.90
34877;DHT22;21086;44.780;17.194;2023-04-03T17:31:55;9.00;99.90
34877;DHT22;21086;44.780;17.194;2023-04-03T17:34:22;9.00;99.90
34877;DHT22;21086;44.780;17.194;2023-04-03T17:36:49;9.10;99.90
34877;DHT22;21086;44.780;17.194;2023-04-03T17:39:16;9.10;99.90
34877;DHT22;21086;44.780;17.194;2023-04-03T17:41:43;9.10;99.90
34877;DHT22;21086;44.780;17.194;2023-04-03T17:44:12;9.20;99.90